Latest Coastal Weather Observations for Christmas Island

IDW60701

Issued at 9:13 pm WST Tuesday 24 January 2017 (issued every 10 minutes, with the page automatically refreshed every 10 minutes)

About coastal observations | Map of coastal stations | Coastal observations for WA | Marine services | Other Formats
Station Details ID: 200790 Name: CHRISTMAS ISLAND AERO Lat: -10.45 Lon: 105.69 Height: 261.0 m
Data from the previous 72 hours. | See also: Recent months at Christmas Island
Date/Time
WST
Temp
°C
Wind Pressure Rain since
9am
mm
Weather Cloud Vis
km
Sea
Height
m
Swell
Dir  Spd
kts
Gust
kts
hPa Trend Height
m
Period
s
Dir
24/09:00pm 23.3 W 8 13 1011.7 - 25.0 - Partly cloudy 10 - - - -
24/08:30pm 23.1 W 7 13 1011.6 - 25.0 - - 10 - - - -
24/08:00pm 23.1 WSW 7 13 1011.6 - 25.0 - - 10 - - - -
24/07:30pm 23.1 W 8 15 1011.4 - 25.0 - Partly cloudy 10 - - - -
24/07:26pm 23.1 W 7 13 1011.3 - 25.0 - Partly cloudy 10 - - - -
24/07:22pm 23.2 W 7 13 1011.3 - 25.0 - Partly cloudy 10 - - - -
24/07:00pm 23.4 W 9 16 1009.4 - 24.0 - Cloudy 5 - - - -
24/06:30pm 23.3 WSW 6 11 1010.7 - 19.8 - Partly cloudy 4 - - - -
24/06:00pm 23.5 W 7 12 1009.9 - 17.4 - Partly cloudy 5 - - - -
24/05:53pm 23.5 W 7 12 1009.9 - 16.6 - Cloudy 6 - - - -
24/05:36pm 23.5 W 10 17 1009.6 - 15.4 - Partly cloudy 10 - - - -
24/05:30pm 23.6 W 10 21 1009.4 - 15.4 - Cloudy 9 - - - -
24/05:13pm 23.8 W 8 15 1009.3 - 14.8 - Partly cloudy 5 - - - -
24/05:11pm 23.8 W 9 15 1009.2 - 14.8 - Partly cloudy 6 - - - -
24/05:09pm 23.7 W 9 15 1009.2 - 14.8 - Partly cloudy 8 - - - -
24/05:00pm 23.4 W 10 17 1009.0 - 14.4 - Partly cloudy 7 - - - -
24/04:43pm 23.4 W 10 21 1008.9 - 12.6 - Partly cloudy 7 - - - -
24/04:32pm 23.9 W 8 15 1009.1 - 12.0 - Partly cloudy 6 - - - -
24/04:30pm 23.9 W 9 15 1009.1 - 11.6 - Partly cloudy 8 - - - -
24/04:01pm 24.5 WNW 11 20 1009.3 - 9.0 - Partly cloudy 6 - - - -
24/04:00pm 24.5 WNW 11 20 1007.6 - 9.0 - Cloudy 7 - - - -
24/03:30pm 24.5 WNW 13 25 1009.3 - 9.0 - Partly cloudy 10 - - - -
24/03:13pm 24.5 WNW 12 23 1009.4 - 8.8 - Partly cloudy 10 - - - -
24/03:00pm 24.5 WNW 11 22 1009.3 - 8.8 - Partly cloudy 3 - - - -
24/02:50pm 24.9 NW 11 17 1009.3 - 8.6 - Cloudy 0.5 - - - -
24/02:46pm 25.1 NW 11 21 1009.2 - 8.6 - Cloudy 0.6 - - - -
24/02:30pm 24.9 NW 11 21 1009.5 - 7.8 - Cloudy 0.5 - - - -
24/02:29pm 24.8 NW 11 21 1009.6 - 7.8 - Cloudy 0.5 - - - -
24/02:27pm 24.9 NW 11 21 1009.6 - 7.6 - Cloudy 0.6 - - - -
24/02:26pm 24.9 NW 11 21 1009.6 - 7.6 - Partly cloudy 0.7 - - - -
24/02:00pm 25.6 WNW 9 16 1010.1 - 5.8 - Partly cloudy 5 - - - -
24/01:53pm 25.3 WNW 9 17 1010.2 - 5.6 - Partly cloudy 6 - - - -
24/01:49pm 25.5 WNW 9 16 1010.2 - 5.0 - Partly cloudy 10 - - - -
24/01:30pm 25.6 W 9 16 1010.2 - 3.8 - Partly cloudy 4 - - - -
24/01:22pm 25.8 WNW 9 18 1010.2 - 2.6 - Partly cloudy 6 - - - -
24/01:17pm 26.3 WNW 8 13 1010.2 - 1.6 - Partly cloudy 10 - - - -
24/01:00pm 25.7 WNW 10 16 1008.7 - 1.6 - Cloudy 5 - - - -
24/12:59pm 25.9 WNW 9 16 1010.3 - 1.6 - Partly cloudy 5 - - - -
24/12:30pm 26.3 WNW 9 16 1010.3 - 1.0 - Partly cloudy 10 - - - -
24/12:11pm 26.6 WNW 8 15 1010.4 - 1.0 - Partly cloudy 10 - - - -
24/12:00pm 26.0 WNW 8 17 1010.6 - 1.0 - Partly cloudy 5 - - - -
24/11:48am 26.2 WNW 9 14 1010.8 - 1.0 - Partly cloudy 5 - - - -
24/11:30am 25.9 WNW 7 14 1011.0 - 1.0 - Partly cloudy 7 - - - -
24/11:27am 26.1 WNW 7 15 1011.1 - 1.0 - Partly cloudy 8 - - - -
24/11:00am 26.3 WNW 7 13 1011.2 - 1.0 - Partly cloudy 5 - - - -
24/10:42am 26.2 W 7 13 1011.4 - 0.0 - Partly cloudy 6 - - - -
24/10:30am 26.6 WNW 6 10 1011.3 - 0.0 - Partly cloudy 10 - - - -
24/10:00am 26.1 W 8 13 1009.7 - 6.0 - Cloudy 10 - - - -
24/09:30am 25.9 WNW 7 11 1011.4 - 6.0 - Partly cloudy 10 - - - -
24/09:00am 25.8 W 5 9 1010.9 - 6.0 - Partly cloudy 10 - - - -
24/08:30am 25.4 W 5 9 1010.6 - 6.0 - Partly cloudy 10 - - - -
24/08:00am 25.4 W 6 11 1010.2 - 6.0 - Partly cloudy 10 - - - -
24/07:30am 25.4 W 7 13 1009.9 - 6.0 - Partly cloudy 10 - - - -
24/07:00am 25.2 WNW 7 12 1007.8 - 6.0 - Cloudy 10 - - - -
24/06:30am 25.1 WNW 7 11 1009.4 - 6.0 - Partly cloudy 10 - - - -
24/06:00am 25.3 W 7 12 1009.2 - 5.2 - Partly cloudy 10 - - - -
24/05:46am 25.2 WNW 7 13 1009.1 - 5.2 - Partly cloudy 10 - - - -
24/05:34am 25.1 W 7 13 1009.2 - 5.0 - Partly cloudy 6 - - - -
24/05:30am 25.3 WNW 6 13 1009.2 - 4.2 - Partly cloudy 10 - - - -
24/05:04am 25.1 WNW 8 14 1009.3 - 4.0 - Partly cloudy 10 - - - -
24/05:00am 25.1 WNW 8 13 1009.3 - 4.0 - Partly cloudy 10 - - - -
24/04:47am 25.0 WNW 7 12 1009.3 - 4.0 - Partly cloudy 6 - - - -
24/04:35am 24.9 W 6 11 1009.3 - 3.8 - Partly cloudy 10 - - - -
24/04:30am 25.0 WNW 5 10 1009.4 - 3.8 - Partly cloudy 10 - - - -
24/04:16am 25.3 WNW 7 12 1009.4 - 3.6 - Partly cloudy 6 - - - -
24/04:00am 25.3 WNW 7 13 1007.9 - 3.4 - Cloudy 10 - - - -
24/03:30am 25.3 WNW 7 13 1009.7 - 3.4 - Partly cloudy 10 - - - -
24/03:00am 25.4 NW 6 11 1009.9 - 3.4 - Partly cloudy 10 - - - -
24/02:30am 25.5 WNW 5 10 1010.3 - 3.2 - Partly cloudy 10 - - - -
24/02:00am 25.4 WNW 5 9 1010.4 - 3.2 - Partly cloudy 10 - - - -
24/01:30am 25.4 WNW 6 11 1010.7 - 3.2 - Partly cloudy 10 - - - -
24/01:00am 25.4 WNW 5 9 1009.5 - 3.2 - Cloudy 10 - - - -
24/12:30am 25.4 WNW 6 11 1011.5 - 3.2 - Partly cloudy 10 - - - -
24/12:01am 25.6 WNW 5 9 1011.9 - 3.2 - Cloudy 10 - - - -
24/12:00am 25.6 WNW 5 9 1011.9 - 3.2 - Partly cloudy 10 - - - -
 
Date/Time
WST
Temp
°C
Wind Pressure Rain since
9am
mm
Weather Cloud Vis
km
Sea
Height
m
Swell
Dir  Spd
kts
Gust
kts
hPa Trend Height
m
Period
s
Dir
23/11:50pm 25.7 NW 7 12 1011.9 - 3.2 - Partly cloudy 6 - - - -
23/11:30pm 25.7 NW 6 10 1011.8 - 2.6 - Partly cloudy 10 - - - -
23/11:00pm 25.6 NW 6 10 1011.8 - 2.6 - Partly cloudy 10 - - - -
23/10:30pm 25.6 NW 7 12 1011.7 - 2.6 - Partly cloudy 10 - - - -
23/10:00pm 25.5 WNW 6 10 1010.0 - 2.6 - Cloudy 10 - - - -
23/09:44pm 25.4 WNW 7 13 1011.5 - 2.6 - Partly cloudy 10 - - - -
23/09:36pm 25.3 WNW 7 11 1011.5 - 2.6 - Partly cloudy 10 - - - -
23/09:30pm 25.4 WNW 6 11 1011.5 - 2.6 - Partly cloudy 10 - - - -
23/09:23pm 25.4 WNW 6 10 1011.4 - 2.6 - Partly cloudy 10 - - - -
23/09:00pm 25.3 WNW 7 14 1011.2 - 2.6 - Partly cloudy 10 - - - -
23/08:54pm 25.3 WNW 6 11 1011.1 - 2.4 - Partly cloudy 10 - - - -
23/08:30pm 25.4 WNW 5 9 1011.0 - 2.4 - Partly cloudy 10 - - - -
23/08:00pm 25.6 NW 6 12 1010.4 - 2.4 - Partly cloudy 9 - - - -
23/07:30pm 25.7 WNW 7 12 1010.0 - 1.6 - Partly cloudy 10 - - - -
23/07:00pm 26.0 WNW 7 13 1008.1 - 1.4 - Cloudy 10 - - - -
23/06:30pm 25.9 WNW 8 15 1009.3 - 1.4 - Partly cloudy 10 - - - -
23/06:00pm 25.9 NW 8 14 1009.1 - 1.4 - Partly cloudy 10 - - - -
23/05:30pm 25.7 WNW 8 13 1009.0 - 1.4 - Partly cloudy 10 - - - -
23/05:00pm 26.3 WNW 6 11 1009.1 - 1.4 - Partly cloudy 10 - - - -
23/04:30pm 26.6 WNW 9 15 1009.2 - 1.4 - Partly cloudy 10 - - - -
23/04:00pm 26.6 WNW 8 14 1007.8 - 1.4 - Cloudy 10 - - - -
23/03:56pm 26.5 NW 8 14 1009.4 - 1.4 - Partly cloudy 10 - - - -
23/03:30pm 26.8 NW 9 15 1010.0 - 1.4 - Partly cloudy 10 - - - -
23/03:13pm 27.4 WNW 9 16 1010.2 - 1.4 - Partly cloudy 10 - - - -
23/03:00pm 27.3 NW 7 12 1010.4 - 1.4 - Partly cloudy 10 - - - -
23/02:33pm 27.0 WNW 8 13 1010.8 - 1.4 - Partly cloudy 10 - - - -
23/02:30pm 26.9 WNW 8 14 1010.8 - 1.4 - Partly cloudy 10 - - - -
23/02:29pm 27.0 WNW 9 15 1010.8 - 1.4 - Partly cloudy 10 - - - -
23/02:20pm 26.2 NW 8 15 1010.9 - 1.4 - Partly cloudy 10 - - - -
23/02:00pm 26.3 NW 9 14 1011.1 - 1.0 - Partly cloudy 5 - - - -
23/01:58pm 26.4 NW 9 14 1011.2 - 0.8 - Partly cloudy 6 - - - -
23/01:46pm 26.9 NNW 9 17 1011.1 - 0.8 - Partly cloudy 10 - - - -
23/01:30pm 26.4 NW 8 13 1011.4 - 0.6 - Partly cloudy 4 - - - -
23/01:26pm 26.3 NW 9 14 1011.5 - 0.4 - Partly cloudy 6 - - - -
23/01:00pm 27.7 NNW 9 16 1009.8 - 0.0 - Cloudy 10 - - - -
23/12:30pm 27.4 NW 8 14 1011.6 - 0.0 - Partly cloudy 10 - - - -
23/12:00pm 27.6 NW 8 14 1011.8 - 0.0 - Partly cloudy 10 - - - -
23/11:30am 26.9 NW 7 11 1012.2 - 0.0 - Partly cloudy 10 - - - -
23/11:00am 26.3 NW 7 11 1012.5 - 0.0 - Partly cloudy 10 - - - -
23/10:30am 26.4 NW 7 13 1012.5 - 0.0 - Partly cloudy 10 - - - -
23/10:00am 26.4 NW 5 9 1010.8 - 18.6 - Cloudy 10 - - - -
23/09:30am 26.2 WNW 6 14 1012.5 - 18.6 - Partly cloudy 10 - - - -
23/09:00am 25.9 NW 9 15 1012.3 - 18.6 - Partly cloudy 10 - - - -
23/08:30am 25.5 WNW 9 15 1011.9 - 18.6 - Partly cloudy 10 - - - -
23/08:00am 25.5 NW 7 13 1011.5 - 18.6 - Partly cloudy 10 - - - -
23/07:30am 25.3 NW 7 11 1011.4 - 18.6 - Partly cloudy 10 - - - -
23/07:00am 25.2 NW 8 14 1009.6 - 18.6 - Cloudy 10 - - - -
23/06:30am 24.9 NW 7 13 1011.2 - 18.6 - Partly cloudy 10 - - - -
23/06:26am 24.9 NW 7 13 1011.2 - 18.6 - Partly cloudy 10 - - - -
23/06:00am 25.1 NW 8 12 1011.3 - 18.6 - Partly cloudy 10 - - - -
23/05:33am 25.4 WNW 7 12 1011.1 - 18.6 - Partly cloudy 10 - - - -
23/05:30am 25.3 WNW 7 12 1011.1 - 18.6 - Partly cloudy 10 - - - -
23/05:04am 25.4 WNW 8 14 1011.1 - 18.6 - Partly cloudy 10 - - - -
23/05:00am 25.3 WNW 8 12 1011.0 - 18.6 - Partly cloudy 10 - - - -
23/04:30am 25.2 WNW 7 10 1011.1 - 18.6 - Partly cloudy 10 - - - -
23/04:00am 25.5 NW 6 11 1009.7 - 18.6 - Cloudy 10 - - - -
23/03:30am 25.3 WNW 8 13 1011.3 - 18.6 - Partly cloudy 10 - - - -
23/03:00am 25.3 WNW 9 15 1011.4 - 18.6 - Partly cloudy 10 - - - -
23/02:30am 25.2 WNW 8 14 1011.6 - 18.6 - Partly cloudy 10 - - - -
23/02:00am 25.1 WNW 9 15 1011.8 - 18.4 - Partly cloudy 10 - - - -
23/01:52am 25.2 WNW 9 17 1011.9 - 18.4 - Partly cloudy 8 - - - -
23/01:30am 25.3 WNW 8 12 1012.2 - 17.0 - Cloudy 6 - - - -
23/01:00am 24.7 W 8 15 1010.8 - 15.6 - Cloudy 10 - - - -
23/12:30am 24.8 WNW 7 16 1012.7 - 15.6 - Partly cloudy 10 - - - -
23/12:00am 25.7 WNW 8 14 1012.9 - 15.4 - Partly cloudy 10 - - - -
 
Date/Time
WST
Temp
°C
Wind Pressure Rain since
9am
mm
Weather Cloud Vis
km
Sea
Height
m
Swell
Dir  Spd
kts
Gust
kts
hPa Trend Height
m
Period
s
Dir
22/11:30pm 25.7 WNW 8 18 1013.2 - 15.4 - Partly cloudy 10 - - - -
22/11:00pm 25.7 WNW 7 12 1013.1 - 15.4 - Partly cloudy 10 - - - -
22/10:30pm 25.2 WNW 5 9 1013.1 - 15.4 - Partly cloudy 10 - - - -
22/10:01pm 24.1 WNW 5 8 1012.8 - 15.4 - Partly cloudy 10 - - - -
22/10:00pm 24.1 WNW 5 8 1011.2 - 15.4 - Cloudy 10 - - - -
22/09:39pm 24.2 WNW 8 15 1012.7 - 15.4 - Partly cloudy 10 - - - -
22/09:30pm 24.6 WNW 9 18 1012.7 - 15.4 - Partly cloudy 10 - - - -
22/09:00pm 25.4 WNW 7 10 1012.6 - 15.2 - Partly cloudy 10 - - - -
22/08:30pm 24.7 WNW 7 11 1012.6 - 15.2 - Partly cloudy 10 - - - -
22/08:11pm 23.8 W 7 10 1012.4 - 15.2 - Partly cloudy 10 - - - -
22/08:10pm 23.8 W 7 10 1012.4 - 15.2 - Partly cloudy 10 - - - -
22/08:09pm 23.8 W 7 11 1012.4 - 15.2 - Partly cloudy 10 - - - -
22/08:00pm 23.6 WNW 6 11 1012.3 - 15.0 - Partly cloudy 7 - - - -
22/07:30pm 23.6 W 10 17 1012.2 - 6.2 - Partly cloudy 6 - - - -
22/07:27pm 23.5 W 10 17 1011.9 - 6.0 - Partly cloudy 4 - - - -
22/07:25pm 23.4 W 11 17 1011.9 - 5.6 - Partly cloudy 4 - - - -
22/07:07pm 24.5 W 9 21 1011.6 - 1.8 - Partly cloudy 6 - - - -
22/07:00pm 25.4 WSW 9 14 1009.6 - 0.2 - Cloudy 10 - - - -
22/06:30pm 26.2 NW 8 13 1010.8 - 0.2 - Partly cloudy 10 - - - -
22/06:00pm 26.2 WNW 8 16 1010.5 - 0.2 - Partly cloudy 10 - - - -
22/05:30pm 26.1 WNW 9 15 1010.3 - 0.2 - Partly cloudy 10 - - - -
22/05:00pm 26.4 WNW 6 12 1010.1 - 0.2 - Partly cloudy 10 - - - -
22/04:34pm 27.0 WNW 9 17 1010.6 - 0.2 - Partly cloudy 10 - - - -
22/04:31pm 26.7 WNW 10 17 1010.7 - 0.2 - Partly cloudy 10 - - - -
22/04:30pm 26.7 WNW 10 17 1010.7 - 0.2 - Partly cloudy 10 - - - -
22/04:00pm 26.7 WNW 10 17 1009.2 - 0.2 - Cloudy 10 - - - -
22/03:30pm 27.4 NW 9 20 1011.1 - 0.2 - Partly cloudy 10 - - - -
22/03:09pm 27.0 WNW 9 17 1011.3 - 0.2 - Partly cloudy 10 - - - -
22/03:00pm 27.2 WNW 8 14 1011.4 - 0.2 - Partly cloudy 10 - - - -
22/02:48pm 27.0 WNW 9 17 1011.4 - 0.2 - Partly cloudy 10 - - - -
22/02:30pm 26.9 WNW 10 18 1011.6 - 0.2 - Partly cloudy 10 - - - -
22/02:00pm 27.6 WNW 10 18 1011.7 - 0.2 - Partly cloudy 10 - - - -
22/01:46pm 27.9 NW 10 18 1011.9 - 0.2 - Partly cloudy 10 - - - -
22/01:30pm 26.6 WNW 10 18 1012.3 - 0.2 - Partly cloudy 10 - - - -
22/01:00pm 28.2 NW 9 17 1010.8 - 0.2 - Cloudy 10 - - - -
22/12:30pm 27.0 NW 7 13 1012.9 - 0.2 - Partly cloudy 9 - - - -
22/12:00pm 27.4 WNW 10 17 1013.3 - 0.2 - Partly cloudy 10 - - - -
22/11:30am 27.0 NW 10 17 1013.4 - 0.2 - Partly cloudy 10 - - - -
22/11:00am 26.7 NW 9 15 1013.4 - 0.0 - Partly cloudy 10 - - - -
22/10:30am 26.1 NW 8 13 1013.8 - 0.0 - Partly cloudy 10 - - - -
22/10:00am 25.7 NW 9 16 1012.4 - 12.0 - Cloudy 10 - - - -
22/09:30am 26.0 NW 7 11 1013.9 - 12.0 - Partly cloudy 10 - - - -
22/09:00am 25.8 NNW 7 15 1013.6 - 12.0 - Partly cloudy 10 - - - -
22/08:30am 25.6 NW 8 14 1013.3 - 12.0 - Partly cloudy 10 - - - -
22/08:00am 25.5 NW 6 11 1013.2 - 12.0 - Partly cloudy 10 - - - -
22/07:30am 25.4 NNW 8 14 1012.9 - 12.0 - Partly cloudy 10 - - - -
22/07:00am 25.2 NW 7 11 1010.9 - 12.0 - Cloudy 10 - - - -
22/06:30am 25.2 NW 7 12 1012.5 - 12.0 - Partly cloudy 10 - - - -
22/06:04am 24.9 NW 5 11 1012.4 - 12.0 - Partly cloudy 10 - - - -
22/06:00am 24.7 NNW 5 8 1012.4 - 12.0 - Partly cloudy 10 - - - -
22/05:54am 24.5 NNW 5 9 1012.3 - 12.0 - Partly cloudy 6 - - - -
22/05:47am 24.3 N 8 14 1012.1 - 11.6 - Partly cloudy 3 - - - -
22/05:34am 24.6 NNW 7 12 1012.1 - 8.2 - Partly cloudy 6 - - - -
22/05:30am 24.6 N 5 8 1012.2 - 7.6 - Partly cloudy 10 - - - -
22/05:00am 25.0 NNW 5 12 1011.9 - 6.8 - Partly cloudy 10 - - - -
22/04:30am 25.4 NNW 5 9 1011.9 - 6.8 - Partly cloudy 10 - - - -
22/04:00am 25.1 NNW 5 8 1010.4 - 6.8 - Cloudy 10 - - - -
22/03:59am 25.1 NNW 5 8 1012.1 - 6.8 - Partly cloudy 10 - - - -
22/03:30am 25.0 NW 5 7 1012.4 - 6.8 - Partly cloudy 10 - - - -
22/03:04am 25.0 WNW 5 8 1012.4 - 6.8 - Partly cloudy 10 - - - -
22/03:00am 25.0 NW 4 6 1012.5 - 6.8 - Partly cloudy 10 - - - -
22/02:30am 25.0 W 4 6 1012.9 - 6.8 - Partly cloudy 10 - - - -
22/02:09am 25.0 W 4 5 1012.8 - 6.8 - Partly cloudy 10 - - - -
22/02:00am 25.0 W 4 6 1013.0 - 6.8 - Partly cloudy 10 - - - -
22/01:30am 24.8 NW 3 5 1013.3 - 6.8 - Partly cloudy 10 - - - -
22/01:00am 24.6 WNW 4 7 1012.0 - 6.8 - Cloudy 10 - - - -
22/12:59am 24.6 WNW 4 7 1013.6 - 6.8 - Partly cloudy 10 - - - -
22/12:32am 24.2 W 5 8 1013.6 - 6.8 - Partly cloudy 10 - - - -
22/12:30am 24.2 W 5 8 1013.7 - 6.8 - Partly cloudy 10 - - - -
22/12:00am 24.7 NW 6 10 1013.9 - 6.0 - Partly cloudy 10 - - - -
 
Date/Time
WST
Temp
°C
Wind Pressure Rain since
9am
mm
Weather Cloud Vis
km
Sea
Height
m
Swell
Dir  Spd
kts
Gust
kts
hPa Trend Height
m
Period
s
Dir
21/11:30pm 25.4 NNW 6 10 1013.9 - 6.0 - Partly cloudy 10 - - - -
21/11:21pm 25.4 NNW 6 9 1014.0 - 6.0 - Partly cloudy 10 - - - -
21/11:01pm 25.2 NW 5 9 1014.0 - 5.0 - Partly cloudy 5 - - - -
21/11:00pm 25.4 NW 4 9 1014.0 - 3.8 - Partly cloudy 8 - - - -
21/10:58pm 25.7 WNW 3 6 1013.9 - 1.8 - Partly cloudy 10 - - - -
21/10:30pm 25.5 NW 4 8 1013.6 - 1.8 - Partly cloudy 10 - - - -

Other Formats:

Comma delimited format used in spreadsheet applications
http://www.bom.gov.au/fwo/IDW60701/IDW60701.96995.axf

JavaScript Object Notation format (JSON) in row-major order
http://www.bom.gov.au/fwo/IDW60701/IDW60701.96995.json